sensor_id;sensor_type;location;lat;lon;timestamp;temperature;humidity
51476;DHT22;37554;50.362;7.568;2022-07-24T00:00:52;24.90;51.60
51476;DHT22;37554;50.362;7.568;2022-07-24T00:03:18;24.90;51.70
51476;DHT22;37554;50.362;7.568;2022-07-24T00:05:44;24.90;51.70
51476;DHT22;37554;50.362;7.568;2022-07-24T00:08:09;24.90;51.70
51476;DHT22;37554;50.362;7.568;2022-07-24T00:10:35;24.90;51.70
51476;DHT22;37554;50.362;7.568;2022-07-24T00:13:00;24.90;51.70
51476;DHT22;37554;50.362;7.568;2022-07-24T00:15:26;24.90;51.70
51476;DHT22;37554;50.362;7.568;2022-07-24T00:17:52;24.90;51.70
51476;DHT22;37554;50.362;7.568;2022-07-24T00:20:17;24.90;51.70
51476;DHT22;37554;50.362;7.568;2022-07-24T00:22:43;24.90;51.70
51476;DHT22;37554;50.362;7.568;2022-07-24T00:25:09;24.90;51.70
51476;DHT22;37554;50.362;7.568;2022-07-24T00:27:34;24.90;51.70
51476;DHT22;37554;50.362;7.568;2022-07-24T00:30:00;24.90;51.70
51476;DHT22;37554;50.362;7.568;2022-07-24T00:32:26;24.90;51.70
51476;DHT22;37554;50.362;7.568;2022-07-24T00:34:51;24.90;51.70
51476;DHT22;37554;50.362;7.568;2022-07-24T00:37:17;24.80;51.70
51476;DHT22;37554;50.362;7.568;2022-07-24T00:39:42;24.80;51.70
51476;DHT22;37554;50.362;7.568;2022-07-24T00:42:09;24.80;51.80
51476;DHT22;37554;50.362;7.568;2022-07-24T00:44:34;24.80;51.80
51476;DHT22;37554;50.362;7.568;2022-07-24T00:47:00;24.80;51.90
51476;DHT22;37554;50.362;7.568;2022-07-24T00:49:26;24.80;51.90
51476;DHT22;37554;50.362;7.568;2022-07-24T00:51:52;24.80;51.90
51476;DHT22;37554;50.362;7.568;2022-07-24T00:54:20;24.80;51.90
51476;DHT22;37554;50.362;7.568;2022-07-24T00:56:48;24.80;51.80
51476;DHT22;37554;50.362;7.568;2022-07-24T00:59:14;24.70;51.80
51476;DHT22;37554;50.362;7.568;2022-07-24T01:01:39;24.70;51.90
51476;DHT22;37554;50.362;7.568;2022-07-24T01:04:05;24.70;51.90
51476;DHT22;37554;50.362;7.568;2022-07-24T01:06:31;24.70;51.90
51476;DHT22;37554;50.362;7.568;2022-07-24T01:08:57;24.70;52.00
51476;DHT22;37554;50.362;7.568;2022-07-24T01:11:23;24.70;52.10
51476;DHT22;37554;50.362;7.568;2022-07-24T01:13:50;24.70;52.10
51476;DHT22;37554;50.362;7.568;2022-07-24T01:16:16;24.70;52.20
51476;DHT22;37554;50.362;7.568;2022-07-24T01:18:42;24.70;52.20
51476;DHT22;37554;50.362;7.568;2022-07-24T01:21:08;24.70;52.20
51476;DHT22;37554;50.362;7.568;2022-07-24T01:23:34;24.70;52.30
51476;DHT22;37554;50.362;7.568;2022-07-24T01:26:00;24.70;52.30
51476;DHT22;37554;50.362;7.568;2022-07-24T01:28:27;24.60;52.30
51476;DHT22;37554;50.362;7.568;2022-07-24T01:30:53;24.60;52.30
51476;DHT22;37554;50.362;7.568;2022-07-24T01:33:19;24.60;52.30
51476;DHT22;37554;50.362;7.568;2022-07-24T01:35:44;24.60;52.30
51476;DHT22;37554;50.362;7.568;2022-07-24T01:38:11;24.60;52.30
51476;DHT22;37554;50.362;7.568;2022-07-24T01:40:38;24.50;52.40
51476;DHT22;37554;50.362;7.568;2022-07-24T01:43:04;24.50;52.40
51476;DHT22;37554;50.362;7.568;2022-07-24T01:45:30;24.50;52.50
51476;DHT22;37554;50.362;7.568;2022-07-24T01:47:57;24.50;52.60
51476;DHT22;37554;50.362;7.568;2022-07-24T01:50:23;24.50;52.60
51476;DHT22;37554;50.362;7.568;2022-07-24T01:52:49;24.50;52.60
51476;DHT22;37554;50.362;7.568;2022-07-24T01:55:15;24.50;52.60
51476;DHT22;37554;50.362;7.568;2022-07-24T01:57:40;24.40;52.70
51476;DHT22;37554;50.362;7.568;2022-07-24T02:00:07;24.40;52.70
51476;DHT22;37554;50.362;7.568;2022-07-24T02:02:38;24.40;52.70
51476;DHT22;37554;50.362;7.568;2022-07-24T02:05:05;24.40;52.80
51476;DHT22;37554;50.362;7.568;2022-07-24T02:07:30;24.40;52.80
51476;DHT22;37554;50.362;7.568;2022-07-24T02:09:56;24.40;52.80
51476;DHT22;37554;50.362;7.568;2022-07-24T02:12:21;24.40;52.80
51476;DHT22;37554;50.362;7.568;2022-07-24T02:14:47;24.40;52.90
51476;DHT22;37554;50.362;7.568;2022-07-24T02:17:13;24.30;52.90
51476;DHT22;37554;50.362;7.568;2022-07-24T02:19:38;24.30;52.90
51476;DHT22;37554;50.362;7.568;2022-07-24T02:22:04;24.30;52.90
51476;DHT22;37554;50.362;7.568;2022-07-24T02:24:30;24.30;52.90
51476;DHT22;37554;50.362;7.568;2022-07-24T02:26:55;24.30;53.00
51476;DHT22;37554;50.362;7.568;2022-07-24T02:29:21;24.30;53.00
51476;DHT22;37554;50.362;7.568;2022-07-24T02:31:46;24.20;53.00
51476;DHT22;37554;50.362;7.568;2022-07-24T02:34:12;24.20;53.10
51476;DHT22;37554;50.362;7.568;2022-07-24T02:36:38;24.20;53.10
51476;DHT22;37554;50.362;7.568;2022-07-24T02:39:03;24.20;53.10
51476;DHT22;37554;50.362;7.568;2022-07-24T02:41:29;24.20;53.20
51476;DHT22;37554;50.362;7.568;2022-07-24T02:43:55;24.20;53.20
51476;DHT22;37554;50.362;7.568;2022-07-24T02:46:20;24.20;53.30
51476;DHT22;37554;50.362;7.568;2022-07-24T02:48:46;24.20;53.20
51476;DHT22;37554;50.362;7.568;2022-07-24T02:51:12;24.20;53.30
51476;DHT22;37554;50.362;7.568;2022-07-24T02:53:37;24.20;53.30
51476;DHT22;37554;50.362;7.568;2022-07-24T02:56:03;24.20;53.30
51476;DHT22;37554;50.362;7.568;2022-07-24T02:58:29;24.20;53.40
51476;DHT22;37554;50.362;7.568;2022-07-24T03:00:55;24.10;53.40
51476;DHT22;37554;50.362;7.568;2022-07-24T03:03:20;24.10;53.40
51476;DHT22;37554;50.362;7.568;2022-07-24T03:05:46;24.10;53.40
51476;DHT22;37554;50.362;7.568;2022-07-24T03:08:12;24.10;53.50
51476;DHT22;37554;50.362;7.568;2022-07-24T03:10:37;24.10;53.50
51476;DHT22;37554;50.362;7.568;2022-07-24T03:13:03;24.00;53.60
51476;DHT22;37554;50.362;7.568;2022-07-24T03:15:31;24.00;53.60
51476;DHT22;37554;50.362;7.568;2022-07-24T03:17:56;24.00;53.50
51476;DHT22;37554;50.362;7.568;2022-07-24T03:20:24;24.00;53.50
51476;DHT22;37554;50.362;7.568;2022-07-24T03:22:51;24.00;53.60
51476;DHT22;37554;50.362;7.568;2022-07-24T03:25:18;24.00;53.70
51476;DHT22;37554;50.362;7.568;2022-07-24T03:27:44;23.90;53.60
51476;DHT22;37554;50.362;7.568;2022-07-24T03:30:11;23.90;53.60
51476;DHT22;37554;50.362;7.568;2022-07-24T03:32:36;23.90;53.70
51476;DHT22;37554;50.362;7.568;2022-07-24T03:35:02;23.90;53.70
51476;DHT22;37554;50.362;7.568;2022-07-24T03:37:28;23.90;53.80
51476;DHT22;37554;50.362;7.568;2022-07-24T03:39:54;23.90;53.90
51476;DHT22;37554;50.362;7.568;2022-07-24T03:42:20;23.90;53.90
51476;DHT22;37554;50.362;7.568;2022-07-24T03:44:46;23.90;53.90
51476;DHT22;37554;50.362;7.568;2022-07-24T03:47:11;23.90;53.90
51476;DHT22;37554;50.362;7.568;2022-07-24T03:49:37;23.90;53.90
51476;DHT22;37554;50.362;7.568;2022-07-24T03:52:03;23.80;53.90
51476;DHT22;37554;50.362;7.568;2022-07-24T03:54:29;23.90;54.00
51476;DHT22;37554;50.362;7.568;2022-07-24T03:56:54;23.80;53.90
51476;DHT22;37554;50.362;7.568;2022-07-24T03:59:20;23.80;54.00
51476;DHT22;37554;50.362;7.568;2022-07-24T04:01:46;23.80;54.00
51476;DHT22;37554;50.362;7.568;2022-07-24T04:04:12;23.80;54.10
51476;DHT22;37554;50.362;7.568;2022-07-24T04:06:38;23.80;54.00
51476;DHT22;37554;50.362;7.568;2022-07-24T04:09:05;23.80;54.10
51476;DHT22;37554;50.362;7.568;2022-07-24T04:11:31;23.80;54.10
51476;DHT22;37554;50.362;7.568;2022-07-24T04:13:57;23.80;54.20
51476;DHT22;37554;50.362;7.568;2022-07-24T04:16:23;23.80;54.30
51476;DHT22;37554;50.362;7.568;2022-07-24T04:18:52;23.80;54.30
51476;DHT22;37554;50.362;7.568;2022-07-24T04:21:18;23.80;54.30
51476;DHT22;37554;50.362;7.568;2022-07-24T04:23:43;23.80;55.00
51476;DHT22;37554;50.362;7.568;2022-07-24T04:26:09;23.80;54.30
51476;DHT22;37554;50.362;7.568;2022-07-24T04:28:35;23.80;54.30
51476;DHT22;37554;50.362;7.568;2022-07-24T04:31:01;23.70;54.30
51476;DHT22;37554;50.362;7.568;2022-07-24T04:33:27;23.80;54.30
51476;DHT22;37554;50.362;7.568;2022-07-24T04:35:53;23.80;54.30
51476;DHT22;37554;50.362;7.568;2022-07-24T04:38:18;23.80;54.30
51476;DHT22;37554;50.362;7.568;2022-07-24T04:40:44;23.80;54.30
51476;DHT22;37554;50.362;7.568;2022-07-24T04:43:10;23.80;54.30
51476;DHT22;37554;50.362;7.568;2022-07-24T04:45:35;23.80;54.30
51476;DHT22;37554;50.362;7.568;2022-07-24T04:48:02;23.90;54.40
51476;DHT22;37554;50.362;7.568;2022-07-24T04:50:27;23.80;54.30
51476;DHT22;37554;50.362;7.568;2022-07-24T04:52:53;23.80;54.30
51476;DHT22;37554;50.362;7.568;2022-07-24T04:55:19;23.90;54.40
51476;DHT22;37554;50.362;7.568;2022-07-24T04:57:44;23.90;54.40
51476;DHT22;37554;50.362;7.568;2022-07-24T05:00:12;23.90;54.40
51476;DHT22;37554;50.362;7.568;2022-07-24T05:02:39;23.90;54.40
51476;DHT22;37554;50.362;7.568;2022-07-24T05:05:05;23.90;54.40
51476;DHT22;37554;50.362;7.568;2022-07-24T05:07:31;23.90;54.40
51476;DHT22;37554;50.362;7.568;2022-07-24T05:09:56;23.90;54.40
51476;DHT22;37554;50.362;7.568;2022-07-24T05:12:23;23.90;54.30
51476;DHT22;37554;50.362;7.568;2022-07-24T05:14:49;23.90;54.20
51476;DHT22;37554;50.362;7.568;2022-07-24T05:17:14;23.90;54.10
51476;DHT22;37554;50.362;7.568;2022-07-24T05:19:40;23.90;54.10
51476;DHT22;37554;50.362;7.568;2022-07-24T05:22:06;24.00;54.10
51476;DHT22;37554;50.362;7.568;2022-07-24T05:24:32;24.00;54.10
51476;DHT22;37554;50.362;7.568;2022-07-24T05:26:57;24.00;54.10
51476;DHT22;37554;50.362;7.568;2022-07-24T05:29:23;24.00;54.00
51476;DHT22;37554;50.362;7.568;2022-07-24T05:31:48;24.00;54.00
51476;DHT22;37554;50.362;7.568;2022-07-24T05:34:14;24.00;53.90
51476;DHT22;37554;50.362;7.568;2022-07-24T05:36:40;24.10;54.00
51476;DHT22;37554;50.362;7.568;2022-07-24T05:39:06;24.10;54.00
51476;DHT22;37554;50.362;7.568;2022-07-24T05:41:31;24.10;54.00
51476;DHT22;37554;50.362;7.568;2022-07-24T05:43:57;24.10;53.90
51476;DHT22;37554;50.362;7.568;2022-07-24T05:46:23;24.10;53.90
51476;DHT22;37554;50.362;7.568;2022-07-24T05:48:49;24.20;53.90
51476;DHT22;37554;50.362;7.568;2022-07-24T05:51:15;24.20;53.90
51476;DHT22;37554;50.362;7.568;2022-07-24T05:53:41;24.20;53.70
51476;DHT22;37554;50.362;7.568;2022-07-24T05:56:06;24.20;53.70
51476;DHT22;37554;50.362;7.568;2022-07-24T05:58:32;24.30;53.60
51476;DHT22;37554;50.362;7.568;2022-07-24T06:00:58;24.30;53.60
51476;DHT22;37554;50.362;7.568;2022-07-24T06:03:23;24.40;53.60
51476;DHT22;37554;50.362;7.568;2022-07-24T06:05:49;24.40;53.60
51476;DHT22;37554;50.362;7.568;2022-07-24T06:08:15;24.40;53.50
51476;DHT22;37554;50.362;7.568;2022-07-24T06:10:40;24.50;53.50
51476;DHT22;37554;50.362;7.568;2022-07-24T06:13:06;24.50;53.30
51476;DHT22;37554;50.362;7.568;2022-07-24T06:15:32;24.50;53.30
51476;DHT22;37554;50.362;7.568;2022-07-24T06:17:58;24.60;53.30
51476;DHT22;37554;50.362;7.568;2022-07-24T06:20:23;24.70;53.10
51476;DHT22;37554;50.362;7.568;2022-07-24T06:22:49;24.70;53.00
51476;DHT22;37554;50.362;7.568;2022-07-24T06:25:15;24.70;52.90
51476;DHT22;37554;50.362;7.568;2022-07-24T06:27:43;24.80;52.90
51476;DHT22;37554;50.362;7.568;2022-07-24T06:30:20;24.80;52.80
51476;DHT22;37554;50.362;7.568;2022-07-24T06:32:48;24.90;52.80
51476;DHT22;37554;50.362;7.568;2022-07-24T06:35:14;24.90;52.80
51476;DHT22;37554;50.362;7.568;2022-07-24T06:37:39;25.00;52.70
51476;DHT22;37554;50.362;7.568;2022-07-24T06:40:06;24.80;53.00
51476;DHT22;37554;50.362;7.568;2022-07-24T06:42:32;24.50;53.70
51476;DHT22;37554;50.362;7.568;2022-07-24T06:44:57;24.30;54.60
51476;DHT22;37554;50.362;7.568;2022-07-24T06:47:23;24.10;55.20
51476;DHT22;37554;50.362;7.568;2022-07-24T06:49:49;24.00;55.50
51476;DHT22;37554;50.362;7.568;2022-07-24T06:52:15;24.00;55.70
51476;DHT22;37554;50.362;7.568;2022-07-24T06:54:41;24.00;55.80
51476;DHT22;37554;50.362;7.568;2022-07-24T06:57:07;24.00;55.80
51476;DHT22;37554;50.362;7.568;2022-07-24T06:59:32;24.10;55.80
51476;DHT22;37554;50.362;7.568;2022-07-24T07:01:58;24.20;55.40
51476;DHT22;37554;50.362;7.568;2022-07-24T07:04:23;24.20;55.40
51476;DHT22;37554;50.362;7.568;2022-07-24T07:06:49;24.30;55.20
51476;DHT22;37554;50.362;7.568;2022-07-24T07:09:15;24.30;55.20
51476;DHT22;37554;50.362;7.568;2022-07-24T07:11:40;24.30;55.30
51476;DHT22;37554;50.362;7.568;2022-07-24T07:14:06;24.40;54.90
51476;DHT22;37554;50.362;7.568;2022-07-24T07:16:32;24.50;55.20
51476;DHT22;37554;50.362;7.568;2022-07-24T07:18:57;24.50;55.20
51476;DHT22;37554;50.362;7.568;2022-07-24T07:21:23;24.50;55.10
51476;DHT22;37554;50.362;7.568;2022-07-24T07:23:49;24.60;54.80
51476;DHT22;37554;50.362;7.568;2022-07-24T07:26:14;24.70;54.80
51476;DHT22;37554;50.362;7.568;2022-07-24T07:28:40;24.80;54.60
51476;DHT22;37554;50.362;7.568;2022-07-24T07:31:05;24.90;54.90
51476;DHT22;37554;50.362;7.568;2022-07-24T07:33:31;25.00;54.20
51476;DHT22;37554;50.362;7.568;2022-07-24T07:35:57;25.10;53.90
51476;DHT22;37554;50.362;7.568;2022-07-24T07:38:22;25.10;53.60
51476;DHT22;37554;50.362;7.568;2022-07-24T07:40:48;25.20;53.70
51476;DHT22;37554;50.362;7.568;2022-07-24T07:43:14;25.30;53.50
51476;DHT22;37554;50.362;7.568;2022-07-24T07:45:39;25.30;53.50
51476;DHT22;37554;50.362;7.568;2022-07-24T07:48:05;25.40;53.60
51476;DHT22;37554;50.362;7.568;2022-07-24T07:50:31;25.50;53.60
51476;DHT22;37554;50.362;7.568;2022-07-24T07:52:56;25.60;53.40
51476;DHT22;37554;50.362;7.568;2022-07-24T07:55:22;25.70;53.20
51476;DHT22;37554;50.362;7.568;2022-07-24T07:57:48;26.00;53.20
51476;DHT22;37554;50.362;7.568;2022-07-24T08:00:15;26.20;52.90
51476;DHT22;37554;50.362;7.568;2022-07-24T08:02:41;26.40;52.50
51476;DHT22;37554;50.362;7.568;2022-07-24T08:05:07;26.60;52.20
51476;DHT22;37554;50.362;7.568;2022-07-24T08:07:32;26.80;51.90
51476;DHT22;37554;50.362;7.568;2022-07-24T08:09:58;26.90;51.50
51476;DHT22;37554;50.362;7.568;2022-07-24T08:12:24;27.10;51.30
51476;DHT22;37554;50.362;7.568;2022-07-24T08:14:50;27.30;51.00
51476;DHT22;37554;50.362;7.568;2022-07-24T08:17:15;27.40;50.60
51476;DHT22;37554;50.362;7.568;2022-07-24T08:19:41;27.60;51.00
51476;DHT22;37554;50.362;7.568;2022-07-24T08:22:07;27.70;50.10
51476;DHT22;37554;50.362;7.568;2022-07-24T08:24:33;27.90;49.80
51476;DHT22;37554;50.362;7.568;2022-07-24T08:26:59;28.00;49.40
51476;DHT22;37554;50.362;7.568;2022-07-24T08:29:26;28.10;49.10
51476;DHT22;37554;50.362;7.568;2022-07-24T08:31:51;28.30;48.80
51476;DHT22;37554;50.362;7.568;2022-07-24T08:34:17;28.50;48.60
51476;DHT22;37554;50.362;7.568;2022-07-24T08:36:43;28.60;48.20
51476;DHT22;37554;50.362;7.568;2022-07-24T08:39:12;28.80;48.70
51476;DHT22;37554;50.362;7.568;2022-07-24T08:41:38;28.90;47.80
51476;DHT22;37554;50.362;7.568;2022-07-24T08:44:04;29.10;47.60
51476;DHT22;37554;50.362;7.568;2022-07-24T08:46:31;29.20;47.40
51476;DHT22;37554;50.362;7.568;2022-07-24T08:48:57;29.40;47.10
51476;DHT22;37554;50.362;7.568;2022-07-24T08:51:29;29.50;46.90
51476;DHT22;37554;50.362;7.568;2022-07-24T08:53:56;29.60;46.60
51476;DHT22;37554;50.362;7.568;2022-07-24T08:56:22;29.80;46.40
51476;DHT22;37554;50.362;7.568;2022-07-24T08:58:48;30.00;46.10
51476;DHT22;37554;50.362;7.568;2022-07-24T09:01:14;30.20;45.90
51476;DHT22;37554;50.362;7.568;2022-07-24T09:03:44;30.30;45.60
51476;DHT22;37554;50.362;7.568;2022-07-24T09:06:11;30.50;45.50
51476;DHT22;37554;50.362;7.568;2022-07-24T09:08:59;30.20;44.70
51476;DHT22;37554;50.362;7.568;2022-07-24T09:11:27;29.90;44.80
51476;DHT22;37554;50.362;7.568;2022-07-24T09:14:01;29.70;45.50
51476;DHT22;37554;50.362;7.568;2022-07-24T09:16:46;29.60;45.50
51476;DHT22;37554;50.362;7.568;2022-07-24T09:19:12;29.60;45.70
51476;DHT22;37554;50.362;7.568;2022-07-24T09:21:40;29.50;45.50
51476;DHT22;37554;50.362;7.568;2022-07-24T09:24:20;29.60;45.40
51476;DHT22;37554;50.362;7.568;2022-07-24T09:26:56;29.60;45.20
51476;DHT22;37554;50.362;7.568;2022-07-24T09:29:23;29.80;44.80
51476;DHT22;37554;50.362;7.568;2022-07-24T09:31:57;29.90;44.70
51476;DHT22;37554;50.362;7.568;2022-07-24T09:34:25;30.10;44.10
51476;DHT22;37554;50.362;7.568;2022-07-24T09:37:09;30.30;44.20
51476;DHT22;37554;50.362;7.568;2022-07-24T09:39:36;30.40;43.20
51476;DHT22;37554;50.362;7.568;2022-07-24T09:42:04;30.40;43.10
51476;DHT22;37554;50.362;7.568;2022-07-24T09:44:33;30.40;42.60
51476;DHT22;37554;50.362;7.568;2022-07-24T09:49:26;30.80;42.50
51476;DHT22;37554;50.362;7.568;2022-07-24T09:52:12;30.80;41.80
51476;DHT22;37554;50.362;7.568;2022-07-24T09:55:04;30.90;40.40
51476;DHT22;37554;50.362;7.568;2022-07-24T09:57:44;31.00;40.40
51476;DHT22;37554;50.362;7.568;2022-07-24T10:00:10;31.20;41.20
51476;DHT22;37554;50.362;7.568;2022-07-24T10:02:36;31.30;41.10
51476;DHT22;37554;50.362;7.568;2022-07-24T10:05:04;31.50;41.00
51476;DHT22;37554;50.362;7.568;2022-07-24T10:07:30;31.60;40.90
51476;DHT22;37554;50.362;7.568;2022-07-24T10:09:58;31.70;40.40
51476;DHT22;37554;50.362;7.568;2022-07-24T10:12:27;31.80;40.10
51476;DHT22;37554;50.362;7.568;2022-07-24T10:14:56;31.90;39.90
51476;DHT22;37554;50.362;7.568;2022-07-24T10:20:45;32.10;39.50
51476;DHT22;37554;50.362;7.568;2022-07-24T10:23:26;32.40;40.30
51476;DHT22;37554;50.362;7.568;2022-07-24T10:26:03;32.50;39.00
51476;DHT22;37554;50.362;7.568;2022-07-24T10:28:40;32.50;39.70
51476;DHT22;37554;50.362;7.568;2022-07-24T10:31:08;32.50;39.60
51476;DHT22;37554;50.362;7.568;2022-07-24T10:33:39;32.60;39.40
51476;DHT22;37554;50.362;7.568;2022-07-24T10:36:16;32.70;39.60
51476;DHT22;37554;50.362;7.568;2022-07-24T10:38:48;32.80;38.90
51476;DHT22;37554;50.362;7.568;2022-07-24T10:41:24;32.90;39.00
51476;DHT22;37554;50.362;7.568;2022-07-24T10:44:11;33.00;38.40
51476;DHT22;37554;50.362;7.568;2022-07-24T10:47:12;33.10;38.40
51476;DHT22;37554;50.362;7.568;2022-07-24T10:49:47;33.30;38.10
51476;DHT22;37554;50.362;7.568;2022-07-24T10:52:27;33.40;37.80
51476;DHT22;37554;50.362;7.568;2022-07-24T10:55:31;33.30;37.40
51476;DHT22;37554;50.362;7.568;2022-07-24T11:00:40;33.80;37.50
51476;DHT22;37554;50.362;7.568;2022-07-24T11:03:20;34.10;36.50
51476;DHT22;37554;50.362;7.568;2022-07-24T11:06:06;34.20;36.30
51476;DHT22;37554;50.362;7.568;2022-07-24T11:08:38;34.20;35.90
51476;DHT22;37554;50.362;7.568;2022-07-24T11:16:12;35.10;35.60
51476;DHT22;37554;50.362;7.568;2022-07-24T11:21:38;35.90;35.10
51476;DHT22;37554;50.362;7.568;2022-07-24T11:26:39;37.30;33.30
51476;DHT22;37554;50.362;7.568;2022-07-24T11:29:13;37.60;33.10
51476;DHT22;37554;50.362;7.568;2022-07-24T11:31:40;37.90;32.70
51476;DHT22;37554;50.362;7.568;2022-07-24T11:34:11;38.30;32.60
51476;DHT22;37554;50.362;7.568;2022-07-24T11:36:40;38.80;32.00
51476;DHT22;37554;50.362;7.568;2022-07-24T11:39:07;39.20;31.80
51476;DHT22;37554;50.362;7.568;2022-07-24T11:44:13;40.00;30.30
51476;DHT22;37554;50.362;7.568;2022-07-24T11:46:40;40.10;30.60
51476;DHT22;37554;50.362;7.568;2022-07-24T11:49:08;40.20;30.80
51476;DHT22;37554;50.362;7.568;2022-07-24T11:51:41;40.10;30.90
51476;DHT22;37554;50.362;7.568;2022-07-24T11:54:08;39.80;30.90
51476;DHT22;37554;50.362;7.568;2022-07-24T11:56:34;39.60;31.70
51476;DHT22;37554;50.362;7.568;2022-07-24T11:59:00;39.30;32.00
51476;DHT22;37554;50.362;7.568;2022-07-24T12:01:25;39.00;32.10
51476;DHT22;37554;50.362;7.568;2022-07-24T12:03:52;38.60;32.10
51476;DHT22;37554;50.362;7.568;2022-07-24T12:06:19;38.30;32.20
51476;DHT22;37554;50.362;7.568;2022-07-24T12:08:45;37.90;32.70
51476;DHT22;37554;50.362;7.568;2022-07-24T12:11:11;37.70;32.90
51476;DHT22;37554;50.362;7.568;2022-07-24T12:13:41;37.40;33.10
51476;DHT22;37554;50.362;7.568;2022-07-24T12:16:07;37.30;33.20
51476;DHT22;37554;50.362;7.568;2022-07-24T12:18:33;37.10;33.50
51476;DHT22;37554;50.362;7.568;2022-07-24T12:21:00;37.00;33.90
51476;DHT22;37554;50.362;7.568;2022-07-24T12:23:26;36.90;33.50
51476;DHT22;37554;50.362;7.568;2022-07-24T12:25:54;36.90;33.40
51476;DHT22;37554;50.362;7.568;2022-07-24T12:28:20;37.00;33.80
51476;DHT22;37554;50.362;7.568;2022-07-24T12:30:51;36.80;33.60
51476;DHT22;37554;50.362;7.568;2022-07-24T12:33:21;36.90;34.10
51476;DHT22;37554;50.362;7.568;2022-07-24T12:35:58;37.00;33.60
51476;DHT22;37554;50.362;7.568;2022-07-24T12:38:30;36.80;33.10
51476;DHT22;37554;50.362;7.568;2022-07-24T12:41:03;36.60;33.50
51476;DHT22;37554;50.362;7.568;2022-07-24T12:43:29;36.70;33.30
51476;DHT22;37554;50.362;7.568;2022-07-24T12:46:08;36.70;33.50
51476;DHT22;37554;50.362;7.568;2022-07-24T12:48:34;36.80;33.10
51476;DHT22;37554;50.362;7.568;2022-07-24T12:51:06;36.80;33.40
51476;DHT22;37554;50.362;7.568;2022-07-24T12:53:34;36.80;33.10
51476;DHT22;37554;50.362;7.568;2022-07-24T12:56:09;36.80;33.10
51476;DHT22;37554;50.362;7.568;2022-07-24T12:59:00;36.80;33.20
51476;DHT22;37554;50.362;7.568;2022-07-24T13:02:09;36.80;33.30
51476;DHT22;37554;50.362;7.568;2022-07-24T13:04:50;36.60;32.90
51476;DHT22;37554;50.362;7.568;2022-07-24T13:07:19;36.60;33.40
51476;DHT22;37554;50.362;7.568;2022-07-24T13:09:48;36.60;33.60
51476;DHT22;37554;50.362;7.568;2022-07-24T13:12:15;36.80;33.40
51476;DHT22;37554;50.362;7.568;2022-07-24T13:14:41;37.00;33.60
51476;DHT22;37554;50.362;7.568;2022-07-24T13:17:18;37.10;33.10
51476;DHT22;37554;50.362;7.568;2022-07-24T13:19:50;37.00;33.20
51476;DHT22;37554;50.362;7.568;2022-07-24T13:22:16;36.90;33.10
51476;DHT22;37554;50.362;7.568;2022-07-24T13:24:42;36.90;33.50
51476;DHT22;37554;50.362;7.568;2022-07-24T13:27:10;36.80;33.10
51476;DHT22;37554;50.362;7.568;2022-07-24T13:29:36;36.90;33.10
51476;DHT22;37554;50.362;7.568;2022-07-24T13:32:03;36.80;32.80
51476;DHT22;37554;50.362;7.568;2022-07-24T13:34:29;36.90;33.10
51476;DHT22;37554;50.362;7.568;2022-07-24T13:36:55;37.00;33.00
51476;DHT22;37554;50.362;7.568;2022-07-24T13:39:21;37.20;33.00
51476;DHT22;37554;50.362;7.568;2022-07-24T13:41:47;37.10;32.90
51476;DHT22;37554;50.362;7.568;2022-07-24T13:44:13;37.30;32.90
51476;DHT22;37554;50.362;7.568;2022-07-24T13:46:39;37.20;32.40
51476;DHT22;37554;50.362;7.568;2022-07-24T13:49:05;37.30;33.10
51476;DHT22;37554;50.362;7.568;2022-07-24T13:51:33;37.30;32.80
51476;DHT22;37554;50.362;7.568;2022-07-24T13:53:58;37.40;32.60
51476;DHT22;37554;50.362;7.568;2022-07-24T13:56:25;37.30;32.60
51476;DHT22;37554;50.362;7.568;2022-07-24T13:58:52;37.20;32.70
51476;DHT22;37554;50.362;7.568;2022-07-24T14:01:18;37.10;32.70
51476;DHT22;37554;50.362;7.568;2022-07-24T14:03:45;37.10;32.60
51476;DHT22;37554;50.362;7.568;2022-07-24T14:06:10;36.90;32.70
51476;DHT22;37554;50.362;7.568;2022-07-24T14:08:39;36.80;32.80
51476;DHT22;37554;50.362;7.568;2022-07-24T14:11:07;36.80;32.80
51476;DHT22;37554;50.362;7.568;2022-07-24T14:13:32;36.80;32.70
51476;DHT22;37554;50.362;7.568;2022-07-24T14:15:58;36.80;32.40
51476;DHT22;37554;50.362;7.568;2022-07-24T14:18:24;36.80;32.40
51476;DHT22;37554;50.362;7.568;2022-07-24T14:20:50;36.80;32.50
51476;DHT22;37554;50.362;7.568;2022-07-24T14:23:16;36.70;32.60
51476;DHT22;37554;50.362;7.568;2022-07-24T14:25:43;36.80;32.60
51476;DHT22;37554;50.362;7.568;2022-07-24T14:28:09;36.50;32.30
51476;DHT22;37554;50.362;7.568;2022-07-24T14:30:34;36.50;32.30
51476;DHT22;37554;50.362;7.568;2022-07-24T14:33:00;36.50;32.40
51476;DHT22;37554;50.362;7.568;2022-07-24T14:35:26;36.40;32.30
51476;DHT22;37554;50.362;7.568;2022-07-24T14:37:52;36.50;31.70
51476;DHT22;37554;50.362;7.568;2022-07-24T14:40:18;36.40;31.70
51476;DHT22;37554;50.362;7.568;2022-07-24T14:42:44;36.40;31.90
51476;DHT22;37554;50.362;7.568;2022-07-24T14:45:10;36.40;31.90
51476;DHT22;37554;50.362;7.568;2022-07-24T14:47:35;36.30;31.60
51476;DHT22;37554;50.362;7.568;2022-07-24T14:50:07;36.20;31.60
51476;DHT22;37554;50.362;7.568;2022-07-24T14:52:34;36.20;31.90
51476;DHT22;37554;50.362;7.568;2022-07-24T14:55:00;36.20;31.90
51476;DHT22;37554;50.362;7.568;2022-07-24T14:57:26;36.20;31.40
51476;DHT22;37554;50.362;7.568;2022-07-24T14:59:52;36.20;31.30
51476;DHT22;37554;50.362;7.568;2022-07-24T15:02:17;36.10;31.10
51476;DHT22;37554;50.362;7.568;2022-07-24T15:04:43;36.00;31.30
51476;DHT22;37554;50.362;7.568;2022-07-24T15:07:09;36.00;31.30
51476;DHT22;37554;50.362;7.568;2022-07-24T15:09:35;35.90;31.70
51476;DHT22;37554;50.362;7.568;2022-07-24T15:12:00;35.90;31.80
51476;DHT22;37554;50.362;7.568;2022-07-24T15:14:26;35.70;32.10
51476;DHT22;37554;50.362;7.568;2022-07-24T15:16:51;35.50;32.30
51476;DHT22;37554;50.362;7.568;2022-07-24T15:19:17;35.30;32.30
51476;DHT22;37554;50.362;7.568;2022-07-24T15:21:43;35.10;32.50
51476;DHT22;37554;50.362;7.568;2022-07-24T15:24:09;34.90;32.30
51476;DHT22;37554;50.362;7.568;2022-07-24T15:26:35;34.90;32.00
51476;DHT22;37554;50.362;7.568;2022-07-24T15:29:01;35.00;31.80
51476;DHT22;37554;50.362;7.568;2022-07-24T15:31:27;35.00;31.80
51476;DHT22;37554;50.362;7.568;2022-07-24T15:33:53;35.00;32.40
51476;DHT22;37554;50.362;7.568;2022-07-24T15:36:18;34.90;32.50
51476;DHT22;37554;50.362;7.568;2022-07-24T15:38:44;34.90;32.60
51476;DHT22;37554;50.362;7.568;2022-07-24T15:41:10;34.80;32.60
51476;DHT22;37554;50.362;7.568;2022-07-24T15:43:35;34.70;32.40
51476;DHT22;37554;50.362;7.568;2022-07-24T15:46:02;34.70;32.00
51476;DHT22;37554;50.362;7.568;2022-07-24T15:48:27;34.70;31.60
51476;DHT22;37554;50.362;7.568;2022-07-24T15:50:53;34.60;31.90
51476;DHT22;37554;50.362;7.568;2022-07-24T15:53:19;34.50;32.40